sensor_id;sensor_type;location;lat;lon;timestamp;P1;durP1;ratioP1;P2;durP2;ratioP2
15764;SDS011;7983;50.744;7.086;2023-07-20T00:01:31;2.22;;;1.67;;
15764;SDS011;7983;50.744;7.086;2023-07-20T00:03:59;4.22;;;1.65;;
15764;SDS011;7983;50.744;7.086;2023-07-20T00:06:27;4.10;;;1.52;;
15764;SDS011;7983;50.744;7.086;2023-07-20T00:08:53;4.90;;;1.55;;
15764;SDS011;7983;50.744;7.086;2023-07-20T00:11:25;4.72;;;1.80;;
15764;SDS011;7983;50.744;7.086;2023-07-20T00:13:51;2.67;;;1.60;;
15764;SDS011;7983;50.744;7.086;2023-07-20T00:16:17;4.07;;;1.85;;
15764;SDS011;7983;50.744;7.086;2023-07-20T00:18:45;4.00;;;1.98;;
15764;SDS011;7983;50.744;7.086;2023-07-20T00:21:11;4.78;;;2.10;;
15764;SDS011;7983;50.744;7.086;2023-07-20T00:23:37;4.15;;;2.28;;
15764;SDS011;7983;50.744;7.086;2023-07-20T00:26:03;3.00;;;1.83;;
15764;SDS011;7983;50.744;7.086;2023-07-20T00:28:31;2.38;;;1.70;;
15764;SDS011;7983;50.744;7.086;2023-07-20T00:30:57;2.75;;;1.67;;
15764;SDS011;7983;50.744;7.086;2023-07-20T00:33:30;3.90;;;2.05;;
15764;SDS011;7983;50.744;7.086;2023-07-20T00:35:56;4.22;;;1.90;;
15764;SDS011;7983;50.744;7.086;2023-07-20T00:38:21;2.17;;;1.52;;
15764;SDS011;7983;50.744;7.086;2023-07-20T00:40:50;2.67;;;1.60;;
15764;SDS011;7983;50.744;7.086;2023-07-20T00:43:18;2.75;;;1.65;;
15764;SDS011;7983;50.744;7.086;2023-07-20T00:45:44;2.92;;;1.75;;
15764;SDS011;7983;50.744;7.086;2023-07-20T00:48:10;2.15;;;1.52;;
15764;SDS011;7983;50.744;7.086;2023-07-20T00:50:37;2.15;;;1.67;;
15764;SDS011;7983;50.744;7.086;2023-07-20T00:53:06;3.53;;;1.73;;
15764;SDS011;7983;50.744;7.086;2023-07-20T00:55:32;2.40;;;1.40;;
15764;SDS011;7983;50.744;7.086;2023-07-20T00:57:59;1.77;;;1.50;;
15764;SDS011;7983;50.744;7.086;2023-07-20T01:00:27;3.25;;;1.60;;
15764;SDS011;7983;50.744;7.086;2023-07-20T01:02:55;2.42;;;1.60;;
15764;SDS011;7983;50.744;7.086;2023-07-20T01:05:21;3.22;;;1.60;;
15764;SDS011;7983;50.744;7.086;2023-07-20T01:07:55;2.75;;;1.40;;
15764;SDS011;7983;50.744;7.086;2023-07-20T01:13:04;1.70;;;1.20;;
15764;SDS011;7983;50.744;7.086;2023-07-20T01:15:34;2.25;;;1.60;;
15764;SDS011;7983;50.744;7.086;2023-07-20T01:18:04;2.50;;;1.45;;
15764;SDS011;7983;50.744;7.086;2023-07-20T01:20:31;3.22;;;1.60;;
15764;SDS011;7983;50.744;7.086;2023-07-20T01:25:51;3.63;;;1.67;;
15764;SDS011;7983;50.744;7.086;2023-07-20T01:33:39;3.47;;;1.60;;
15764;SDS011;7983;50.744;7.086;2023-07-20T01:36:06;3.25;;;1.60;;
15764;SDS011;7983;50.744;7.086;2023-07-20T01:38:33;2.45;;;1.65;;
15764;SDS011;7983;50.744;7.086;2023-07-20T01:41:00;2.55;;;1.60;;
15764;SDS011;7983;50.744;7.086;2023-07-20T01:43:26;3.65;;;1.77;;
15764;SDS011;7983;50.744;7.086;2023-07-20T01:45:52;2.55;;;1.38;;
15764;SDS011;7983;50.744;7.086;2023-07-20T01:48:17;2.25;;;1.55;;
15764;SDS011;7983;50.744;7.086;2023-07-20T01:50:43;2.25;;;1.30;;
15764;SDS011;7983;50.744;7.086;2023-07-20T01:53:09;2.35;;;1.50;;
15764;SDS011;7983;50.744;7.086;2023-07-20T01:55:37;3.28;;;1.75;;
15764;SDS011;7983;50.744;7.086;2023-07-20T01:58:03;2.30;;;1.70;;
15764;SDS011;7983;50.744;7.086;2023-07-20T02:00:28;3.47;;;1.67;;
15764;SDS011;7983;50.744;7.086;2023-07-20T02:02:56;2.17;;;1.30;;
15764;SDS011;7983;50.744;7.086;2023-07-20T02:05:24;2.35;;;1.50;;
15764;SDS011;7983;50.744;7.086;2023-07-20T02:07:50;2.03;;;1.33;;
15764;SDS011;7983;50.744;7.086;2023-07-20T02:10:18;1.70;;;1.30;;
15764;SDS011;7983;50.744;7.086;2023-07-20T02:12:44;2.17;;;1.50;;
15764;SDS011;7983;50.744;7.086;2023-07-20T02:15:12;2.13;;;1.42;;
15764;SDS011;7983;50.744;7.086;2023-07-20T02:17:41;2.63;;;1.65;;
15764;SDS011;7983;50.744;7.086;2023-07-20T02:20:07;1.95;;;1.45;;
15764;SDS011;7983;50.744;7.086;2023-07-20T02:22:36;2.90;;;1.55;;
15764;SDS011;7983;50.744;7.086;2023-07-20T02:25:05;2.55;;;1.75;;
15764;SDS011;7983;50.744;7.086;2023-07-20T02:27:34;3.47;;;1.50;;
15764;SDS011;7983;50.744;7.086;2023-07-20T02:30:00;2.55;;;1.50;;
15764;SDS011;7983;50.744;7.086;2023-07-20T02:32:26;2.65;;;1.40;;
15764;SDS011;7983;50.744;7.086;2023-07-20T02:34:52;2.00;;;1.52;;
15764;SDS011;7983;50.744;7.086;2023-07-20T02:37:20;3.92;;;1.70;;
15764;SDS011;7983;50.744;7.086;2023-07-20T02:39:46;4.55;;;1.77;;
15764;SDS011;7983;50.744;7.086;2023-07-20T02:42:12;2.08;;;1.50;;
15764;SDS011;7983;50.744;7.086;2023-07-20T02:44:38;2.08;;;1.45;;
15764;SDS011;7983;50.744;7.086;2023-07-20T02:47:06;4.55;;;1.98;;
15764;SDS011;7983;50.744;7.086;2023-07-20T02:49:34;2.42;;;1.50;;
15764;SDS011;7983;50.744;7.086;2023-07-20T02:52:00;2.92;;;2.15;;
15764;SDS011;7983;50.744;7.086;2023-07-20T02:54:28;2.47;;;1.67;;
15764;SDS011;7983;50.744;7.086;2023-07-20T02:56:55;8.32;;;1.98;;
15764;SDS011;7983;50.744;7.086;2023-07-20T02:59:22;2.88;;;1.50;;
15764;SDS011;7983;50.744;7.086;2023-07-20T03:01:53;1.75;;;1.45;;
15764;SDS011;7983;50.744;7.086;2023-07-20T03:04:19;2.50;;;1.60;;
15764;SDS011;7983;50.744;7.086;2023-07-20T03:06:47;2.33;;;1.70;;
15764;SDS011;7983;50.744;7.086;2023-07-20T03:09:12;3.45;;;1.30;;
15764;SDS011;7983;50.744;7.086;2023-07-20T03:11:38;1.70;;;1.40;;
15764;SDS011;7983;50.744;7.086;2023-07-20T03:14:04;1.70;;;1.40;;
15764;SDS011;7983;50.744;7.086;2023-07-20T03:16:29;2.85;;;1.50;;
15764;SDS011;7983;50.744;7.086;2023-07-20T03:18:57;2.83;;;1.50;;
15764;SDS011;7983;50.744;7.086;2023-07-20T03:21:25;3.67;;;1.50;;
15764;SDS011;7983;50.744;7.086;2023-07-20T03:23:51;1.63;;;1.27;;
15764;SDS011;7983;50.744;7.086;2023-07-20T03:26:17;1.90;;;1.42;;
15764;SDS011;7983;50.744;7.086;2023-07-20T03:28:44;3.28;;;1.73;;
15764;SDS011;7983;50.744;7.086;2023-07-20T03:31:15;3.25;;;1.50;;
15764;SDS011;7983;50.744;7.086;2023-07-20T03:33:40;3.35;;;1.80;;
15764;SDS011;7983;50.744;7.086;2023-07-20T03:36:11;2.50;;;1.58;;
15764;SDS011;7983;50.744;7.086;2023-07-20T03:38:37;6.47;;;1.70;;
15764;SDS011;7983;50.744;7.086;2023-07-20T03:41:02;1.60;;;1.50;;
15764;SDS011;7983;50.744;7.086;2023-07-20T03:43:34;3.58;;;1.70;;
15764;SDS011;7983;50.744;7.086;2023-07-20T03:46:04;2.88;;;1.92;;
15764;SDS011;7983;50.744;7.086;2023-07-20T03:48:32;3.22;;;1.60;;
15764;SDS011;7983;50.744;7.086;2023-07-20T03:51:00;2.45;;;1.45;;
15764;SDS011;7983;50.744;7.086;2023-07-20T03:53:26;5.07;;;1.50;;
15764;SDS011;7983;50.744;7.086;2023-07-20T03:55:52;2.67;;;1.58;;
15764;SDS011;7983;50.744;7.086;2023-07-20T03:58:19;3.58;;;2.10;;
15764;SDS011;7983;50.744;7.086;2023-07-20T04:00:48;2.50;;;1.65;;
15764;SDS011;7983;50.744;7.086;2023-07-20T04:03:15;2.58;;;2.00;;
15764;SDS011;7983;50.744;7.086;2023-07-20T04:05:42;4.70;;;1.88;;
15764;SDS011;7983;50.744;7.086;2023-07-20T04:08:11;3.20;;;1.80;;
15764;SDS011;7983;50.744;7.086;2023-07-20T04:10:37;3.08;;;1.55;;
15764;SDS011;7983;50.744;7.086;2023-07-20T04:13:03;3.28;;;1.80;;
15764;SDS011;7983;50.744;7.086;2023-07-20T04:15:30;2.38;;;1.70;;
15764;SDS011;7983;50.744;7.086;2023-07-20T04:17:56;2.92;;;1.45;;
15764;SDS011;7983;50.744;7.086;2023-07-20T04:20:22;2.72;;;1.63;;
15764;SDS011;7983;50.744;7.086;2023-07-20T04:22:48;4.15;;;1.70;;
15764;SDS011;7983;50.744;7.086;2023-07-20T04:25:14;2.00;;;1.35;;
15764;SDS011;7983;50.744;7.086;2023-07-20T04:27:45;2.00;;;1.67;;
15764;SDS011;7983;50.744;7.086;2023-07-20T04:30:11;3.03;;;1.80;;
15764;SDS011;7983;50.744;7.086;2023-07-20T04:32:38;2.65;;;1.70;;
15764;SDS011;7983;50.744;7.086;2023-07-20T04:35:16;2.90;;;1.55;;
15764;SDS011;7983;50.744;7.086;2023-07-20T04:38:02;2.67;;;1.70;;
15764;SDS011;7983;50.744;7.086;2023-07-20T04:40:28;2.60;;;1.77;;
15764;SDS011;7983;50.744;7.086;2023-07-20T04:42:56;2.70;;;1.67;;
15764;SDS011;7983;50.744;7.086;2023-07-20T04:45:21;4.10;;;1.77;;
15764;SDS011;7983;50.744;7.086;2023-07-20T04:47:49;2.97;;;1.85;;
15764;SDS011;7983;50.744;7.086;2023-07-20T04:50:17;3.10;;;1.90;;
15764;SDS011;7983;50.744;7.086;2023-07-20T04:52:42;3.13;;;1.80;;
15764;SDS011;7983;50.744;7.086;2023-07-20T04:55:11;2.75;;;1.58;;
15764;SDS011;7983;50.744;7.086;2023-07-20T04:57:37;3.00;;;1.73;;
15764;SDS011;7983;50.744;7.086;2023-07-20T05:00:05;3.65;;;2.20;;
15764;SDS011;7983;50.744;7.086;2023-07-20T05:02:31;2.25;;;1.70;;
15764;SDS011;7983;50.744;7.086;2023-07-20T05:04:56;3.75;;;1.40;;
15764;SDS011;7983;50.744;7.086;2023-07-20T05:07:24;2.47;;;1.65;;
15764;SDS011;7983;50.744;7.086;2023-07-20T05:09:50;2.47;;;1.30;;
15764;SDS011;7983;50.744;7.086;2023-07-20T05:12:20;3.78;;;1.63;;
15764;SDS011;7983;50.744;7.086;2023-07-20T05:14:46;4.18;;;1.83;;
15764;SDS011;7983;50.744;7.086;2023-07-20T05:17:12;6.25;;;4.50;;
15764;SDS011;7983;50.744;7.086;2023-07-20T05:19:42;3.45;;;2.80;;
15764;SDS011;7983;50.744;7.086;2023-07-20T05:22:10;3.67;;;2.22;;
15764;SDS011;7983;50.744;7.086;2023-07-20T05:24:40;4.10;;;2.15;;
15764;SDS011;7983;50.744;7.086;2023-07-20T05:27:06;3.45;;;1.92;;
15764;SDS011;7983;50.744;7.086;2023-07-20T05:29:31;6.28;;;2.58;;
15764;SDS011;7983;50.744;7.086;2023-07-20T05:31:59;3.53;;;2.05;;
15764;SDS011;7983;50.744;7.086;2023-07-20T05:34:25;4.50;;;2.30;;
15764;SDS011;7983;50.744;7.086;2023-07-20T05:36:52;6.20;;;2.58;;
15764;SDS011;7983;50.744;7.086;2023-07-20T05:39:23;5.03;;;2.20;;
15764;SDS011;7983;50.744;7.086;2023-07-20T05:41:51;5.75;;;2.30;;
15764;SDS011;7983;50.744;7.086;2023-07-20T05:44:19;3.55;;;2.40;;
15764;SDS011;7983;50.744;7.086;2023-07-20T05:46:49;6.95;;;2.83;;
15764;SDS011;7983;50.744;7.086;2023-07-20T05:49:17;3.17;;;2.53;;
15764;SDS011;7983;50.744;7.086;2023-07-20T05:51:42;4.78;;;2.97;;
15764;SDS011;7983;50.744;7.086;2023-07-20T05:54:11;6.20;;;2.80;;
15764;SDS011;7983;50.744;7.086;2023-07-20T05:56:37;4.60;;;3.05;;
15764;SDS011;7983;50.744;7.086;2023-07-20T05:59:02;7.82;;;3.47;;
15764;SDS011;7983;50.744;7.086;2023-07-20T06:01:30;5.97;;;3.45;;
15764;SDS011;7983;50.744;7.086;2023-07-20T06:03:56;4.80;;;2.75;;
15764;SDS011;7983;50.744;7.086;2023-07-20T06:06:21;5.15;;;2.60;;
15764;SDS011;7983;50.744;7.086;2023-07-20T06:08:47;3.28;;;2.80;;
15764;SDS011;7983;50.744;7.086;2023-07-20T06:11:13;4.72;;;2.90;;
15764;SDS011;7983;50.744;7.086;2023-07-20T06:13:41;3.50;;;2.80;;
15764;SDS011;7983;50.744;7.086;2023-07-20T06:16:09;4.22;;;2.63;;
15764;SDS011;7983;50.744;7.086;2023-07-20T06:18:34;3.97;;;2.85;;
15764;SDS011;7983;50.744;7.086;2023-07-20T06:21:00;4.35;;;3.05;;
15764;SDS011;7983;50.744;7.086;2023-07-20T06:23:26;3.88;;;2.92;;
15764;SDS011;7983;50.744;7.086;2023-07-20T06:25:51;6.47;;;3.45;;
15764;SDS011;7983;50.744;7.086;2023-07-20T06:28:22;5.55;;;2.85;;
15764;SDS011;7983;50.744;7.086;2023-07-20T06:30:49;4.75;;;2.78;;
15764;SDS011;7983;50.744;7.086;2023-07-20T06:33:16;4.75;;;2.63;;
15764;SDS011;7983;50.744;7.086;2023-07-20T06:35:42;3.90;;;2.63;;
15764;SDS011;7983;50.744;7.086;2023-07-20T06:38:10;2.78;;;2.35;;
15764;SDS011;7983;50.744;7.086;2023-07-20T06:40:36;3.90;;;2.72;;
15764;SDS011;7983;50.744;7.086;2023-07-20T06:43:04;5.50;;;2.47;;
15764;SDS011;7983;50.744;7.086;2023-07-20T06:45:30;4.10;;;2.55;;
15764;SDS011;7983;50.744;7.086;2023-07-20T06:47:55;3.55;;;2.78;;
15764;SDS011;7983;50.744;7.086;2023-07-20T06:50:21;4.70;;;2.78;;
15764;SDS011;7983;50.744;7.086;2023-07-20T06:52:48;5.13;;;2.90;;
15764;SDS011;7983;50.744;7.086;2023-07-20T06:55:14;3.45;;;2.67;;
15764;SDS011;7983;50.744;7.086;2023-07-20T06:57:40;3.40;;;2.67;;
15764;SDS011;7983;50.744;7.086;2023-07-20T07:00:06;4.75;;;2.65;;
15764;SDS011;7983;50.744;7.086;2023-07-20T07:02:34;4.70;;;2.65;;
15764;SDS011;7983;50.744;7.086;2023-07-20T07:05:02;2.63;;;2.00;;
15764;SDS011;7983;50.744;7.086;2023-07-20T07:07:28;4.60;;;2.72;;
15764;SDS011;7983;50.744;7.086;2023-07-20T07:09:57;3.35;;;2.55;;
15764;SDS011;7983;50.744;7.086;2023-07-20T07:12:25;3.60;;;2.50;;
15764;SDS011;7983;50.744;7.086;2023-07-20T07:14:50;5.65;;;2.75;;
15764;SDS011;7983;50.744;7.086;2023-07-20T07:17:16;5.53;;;3.28;;
15764;SDS011;7983;50.744;7.086;2023-07-20T07:19:41;3.17;;;2.70;;
15764;SDS011;7983;50.744;7.086;2023-07-20T07:22:07;3.90;;;2.70;;
15764;SDS011;7983;50.744;7.086;2023-07-20T07:24:35;5.65;;;3.92;;
15764;SDS011;7983;50.744;7.086;2023-07-20T07:27:05;5.50;;;2.92;;
15764;SDS011;7983;50.744;7.086;2023-07-20T07:29:33;4.60;;;3.05;;
15764;SDS011;7983;50.744;7.086;2023-07-20T07:31:58;3.63;;;2.80;;
15764;SDS011;7983;50.744;7.086;2023-07-20T07:34:24;2.70;;;2.50;;
15764;SDS011;7983;50.744;7.086;2023-07-20T07:36:52;3.95;;;2.47;;
15764;SDS011;7983;50.744;7.086;2023-07-20T07:39:18;6.40;;;3.15;;
15764;SDS011;7983;50.744;7.086;2023-07-20T07:41:44;3.88;;;2.80;;
15764;SDS011;7983;50.744;7.086;2023-07-20T07:44:10;2.65;;;2.30;;
15764;SDS011;7983;50.744;7.086;2023-07-20T07:46:35;4.07;;;2.88;;
15764;SDS011;7983;50.744;7.086;2023-07-20T07:49:03;4.38;;;2.75;;
15764;SDS011;7983;50.744;7.086;2023-07-20T07:51:29;3.42;;;2.75;;
15764;SDS011;7983;50.744;7.086;2023-07-20T07:53:55;3.35;;;2.50;;
15764;SDS011;7983;50.744;7.086;2023-07-20T07:56:20;3.97;;;2.67;;
15764;SDS011;7983;50.744;7.086;2023-07-20T07:58:49;3.13;;;2.30;;
15764;SDS011;7983;50.744;7.086;2023-07-20T08:01:17;2.63;;;2.35;;
15764;SDS011;7983;50.744;7.086;2023-07-20T08:03:48;3.58;;;2.40;;
15764;SDS011;7983;50.744;7.086;2023-07-20T08:06:18;2.88;;;1.88;;
15764;SDS011;7983;50.744;7.086;2023-07-20T08:08:44;3.15;;;2.30;;
15764;SDS011;7983;50.744;7.086;2023-07-20T08:11:10;3.38;;;2.40;;
15764;SDS011;7983;50.744;7.086;2023-07-20T08:13:38;2.85;;;2.17;;
15764;SDS011;7983;50.744;7.086;2023-07-20T08:16:03;2.90;;;1.77;;
15764;SDS011;7983;50.744;7.086;2023-07-20T08:18:31;2.45;;;1.85;;
15764;SDS011;7983;50.744;7.086;2023-07-20T08:20:57;2.15;;;1.80;;
15764;SDS011;7983;50.744;7.086;2023-07-20T08:23:22;3.40;;;2.15;;
15764;SDS011;7983;50.744;7.086;2023-07-20T08:25:48;3.85;;;2.10;;
15764;SDS011;7983;50.744;7.086;2023-07-20T08:28:14;2.65;;;1.85;;
15764;SDS011;7983;50.744;7.086;2023-07-20T08:30:42;3.92;;;2.00;;
15764;SDS011;7983;50.744;7.086;2023-07-20T08:33:18;5.00;;;1.95;;
15764;SDS011;7983;50.744;7.086;2023-07-20T08:35:48;2.53;;;1.73;;
15764;SDS011;7983;50.744;7.086;2023-07-20T08:38:14;4.10;;;2.15;;
15764;SDS011;7983;50.744;7.086;2023-07-20T08:40:40;1.77;;;1.67;;
15764;SDS011;7983;50.744;7.086;2023-07-20T08:43:13;1.67;;;1.40;;
15764;SDS011;7983;50.744;7.086;2023-07-20T08:45:46;2.13;;;1.67;;
15764;SDS011;7983;50.744;7.086;2023-07-20T08:48:12;2.83;;;1.60;;
15764;SDS011;7983;50.744;7.086;2023-07-20T08:50:39;2.28;;;1.70;;
15764;SDS011;7983;50.744;7.086;2023-07-20T08:53:06;2.35;;;1.55;;
15764;SDS011;7983;50.744;7.086;2023-07-20T08:55:33;2.20;;;1.45;;
15764;SDS011;7983;50.744;7.086;2023-07-20T08:58:02;1.83;;;1.50;;
15764;SDS011;7983;50.744;7.086;2023-07-20T09:00:33;1.33;;;1.23;;
15764;SDS011;7983;50.744;7.086;2023-07-20T09:03:02;1.92;;;1.40;;
15764;SDS011;7983;50.744;7.086;2023-07-20T09:05:28;1.70;;;1.50;;
15764;SDS011;7983;50.744;7.086;2023-07-20T09:07:56;1.58;;;1.30;;
15764;SDS011;7983;50.744;7.086;2023-07-20T09:10:22;2.67;;;1.25;;
15764;SDS011;7983;50.744;7.086;2023-07-20T09:12:49;1.95;;;1.30;;
15764;SDS011;7983;50.744;7.086;2023-07-20T09:15:17;2.17;;;1.48;;
15764;SDS011;7983;50.744;7.086;2023-07-20T09:17:50;1.63;;;1.20;;
15764;SDS011;7983;50.744;7.086;2023-07-20T09:20:18;1.35;;;1.25;;
15764;SDS011;7983;50.744;7.086;2023-07-20T09:22:50;1.77;;;1.20;;
15764;SDS011;7983;50.744;7.086;2023-07-20T09:25:17;1.58;;;1.25;;
15764;SDS011;7983;50.744;7.086;2023-07-20T09:27:47;1.98;;;1.40;;
15764;SDS011;7983;50.744;7.086;2023-07-20T09:30:16;1.60;;;1.25;;
15764;SDS011;7983;50.744;7.086;2023-07-20T09:32:48;1.73;;;1.38;;
15764;SDS011;7983;50.744;7.086;2023-07-20T09:35:17;3.00;;;1.45;;
15764;SDS011;7983;50.744;7.086;2023-07-20T09:40:28;2.83;;;2.25;;
15764;SDS011;7983;50.744;7.086;2023-07-20T09:42:54;1.67;;;1.50;;
15764;SDS011;7983;50.744;7.086;2023-07-20T09:45:34;3.20;;;1.70;;
15764;SDS011;7983;50.744;7.086;2023-07-20T09:48:04;1.88;;;1.30;;
15764;SDS011;7983;50.744;7.086;2023-07-20T09:50:34;2.30;;;1.30;;
15764;SDS011;7983;50.744;7.086;2023-07-20T09:53:06;2.35;;;1.30;;
15764;SDS011;7983;50.744;7.086;2023-07-20T09:55:32;2.50;;;1.30;;
15764;SDS011;7983;50.744;7.086;2023-07-20T09:58:02;1.60;;;1.20;;
15764;SDS011;7983;50.744;7.086;2023-07-20T10:00:28;1.30;;;1.20;;
15764;SDS011;7983;50.744;7.086;2023-07-20T10:02:54;1.60;;;1.20;;
15764;SDS011;7983;50.744;7.086;2023-07-20T10:05:22;1.10;;;1.00;;
15764;SDS011;7983;50.744;7.086;2023-07-20T10:07:52;1.48;;;1.13;;
15764;SDS011;7983;50.744;7.086;2023-07-20T10:10:19;2.17;;;1.17;;
15764;SDS011;7983;50.744;7.086;2023-07-20T10:12:46;1.20;;;1.00;;
15764;SDS011;7983;50.744;7.086;2023-07-20T10:15:15;2.00;;;1.17;;
15764;SDS011;7983;50.744;7.086;2023-07-20T10:20:20;1.60;;;1.50;;
15764;SDS011;7983;50.744;7.086;2023-07-20T10:22:47;1.20;;;1.10;;
15764;SDS011;7983;50.744;7.086;2023-07-20T10:25:16;1.58;;;1.20;;
15764;SDS011;7983;50.744;7.086;2023-07-20T10:27:45;2.88;;;1.02;;
15764;SDS011;7983;50.744;7.086;2023-07-20T10:30:11;1.40;;;1.02;;
15764;SDS011;7983;50.744;7.086;2023-07-20T10:32:37;1.30;;;1.00;;
15764;SDS011;7983;50.744;7.086;2023-07-20T10:35:16;1.40;;;1.20;;
15764;SDS011;7983;50.744;7.086;2023-07-20T10:40:27;1.00;;;0.80;;
15764;SDS011;7983;50.744;7.086;2023-07-20T10:42:59;2.05;;;1.30;;
15764;SDS011;7983;50.744;7.086;2023-07-20T10:53:39;2.45;;;1.20;;
15764;SDS011;7983;50.744;7.086;2023-07-20T10:56:11;1.50;;;1.15;;
15764;SDS011;7983;50.744;7.086;2023-07-20T10:58:38;1.35;;;1.25;;
15764;SDS011;7983;50.744;7.086;2023-07-20T11:01:07;1.70;;;1.05;;
15764;SDS011;7983;50.744;7.086;2023-07-20T11:03:36;1.60;;;1.30;;
15764;SDS011;7983;50.744;7.086;2023-07-20T11:11:29;1.23;;;0.98;;
15764;SDS011;7983;50.744;7.086;2023-07-20T11:16:32;3.15;;;1.15;;
15764;SDS011;7983;50.744;7.086;2023-07-20T11:19:01;3.05;;;1.23;;
15764;SDS011;7983;50.744;7.086;2023-07-20T11:21:28;1.95;;;1.05;;
15764;SDS011;7983;50.744;7.086;2023-07-20T11:23:55;2.63;;;1.00;;
15764;SDS011;7983;50.744;7.086;2023-07-20T11:26:22;1.35;;;0.90;;
15764;SDS011;7983;50.744;7.086;2023-07-20T11:28:51;1.75;;;1.00;;
15764;SDS011;7983;50.744;7.086;2023-07-20T11:31:17;1.08;;;0.82;;
15764;SDS011;7983;50.744;7.086;2023-07-20T11:33:43;1.27;;;0.90;;
15764;SDS011;7983;50.744;7.086;2023-07-20T11:36:09;1.10;;;0.85;;
15764;SDS011;7983;50.744;7.086;2023-07-20T11:38:37;1.10;;;1.00;;
15764;SDS011;7983;50.744;7.086;2023-07-20T11:41:06;1.25;;;0.98;;
15764;SDS011;7983;50.744;7.086;2023-07-20T11:43:34;1.85;;;0.90;;
15764;SDS011;7983;50.744;7.086;2023-07-20T11:46:04;0.90;;;0.80;;
15764;SDS011;7983;50.744;7.086;2023-07-20T11:48:32;1.60;;;0.95;;
15764;SDS011;7983;50.744;7.086;2023-07-20T11:50:58;1.55;;;1.20;;
15764;SDS011;7983;50.744;7.086;2023-07-20T11:53:24;2.38;;;1.13;;
15764;SDS011;7983;50.744;7.086;2023-07-20T11:55:51;2.05;;;1.00;;
15764;SDS011;7983;50.744;7.086;2023-07-20T11:58:17;1.60;;;1.10;;
15764;SDS011;7983;50.744;7.086;2023-07-20T12:00:43;2.05;;;1.30;;
15764;SDS011;7983;50.744;7.086;2023-07-20T12:03:09;2.83;;;1.20;;
15764;SDS011;7983;50.744;7.086;2023-07-20T12:05:37;1.33;;;1.00;;
15764;SDS011;7983;50.744;7.086;2023-07-20T12:08:04;2.25;;;1.08;;
15764;SDS011;7983;50.744;7.086;2023-07-20T12:10:30;2.47;;;1.00;;
15764;SDS011;7983;50.744;7.086;2023-07-20T12:13:01;1.15;;;0.90;;
15764;SDS011;7983;50.744;7.086;2023-07-20T12:15:30;2.00;;;0.90;;
15764;SDS011;7983;50.744;7.086;2023-07-20T12:17:57;4.65;;;0.95;;
15764;SDS011;7983;50.744;7.086;2023-07-20T12:20:24;1.10;;;1.00;;
15764;SDS011;7983;50.744;7.086;2023-07-20T12:23:19;2.28;;;1.00;;
15764;SDS011;7983;50.744;7.086;2023-07-20T12:25:45;2.15;;;1.10;;
15764;SDS011;7983;50.744;7.086;2023-07-20T12:28:17;1.35;;;1.00;;
15764;SDS011;7983;50.744;7.086;2023-07-20T12:30:45;1.08;;;0.90;;
15764;SDS011;7983;50.744;7.086;2023-07-20T12:33:21;1.95;;;1.15;;
15764;SDS011;7983;50.744;7.086;2023-07-20T12:35:48;1.30;;;1.02;;
15764;SDS011;7983;50.744;7.086;2023-07-20T12:38:21;1.27;;;0.73;;
15764;SDS011;7983;50.744;7.086;2023-07-20T12:40:49;5.60;;;0.93;;
15764;SDS011;7983;50.744;7.086;2023-07-20T12:43:15;1.15;;;0.82;;
15764;SDS011;7983;50.744;7.086;2023-07-20T12:45:40;1.55;;;1.10;;
15764;SDS011;7983;50.744;7.086;2023-07-20T12:48:07;1.25;;;0.85;;
15764;SDS011;7983;50.744;7.086;2023-07-20T12:50:34;0.95;;;0.88;;
15764;SDS011;7983;50.744;7.086;2023-07-20T12:53:03;1.67;;;0.88;;
15764;SDS011;7983;50.744;7.086;2023-07-20T12:55:29;1.65;;;0.80;;
15764;SDS011;7983;50.744;7.086;2023-07-20T12:57:54;1.30;;;0.95;;
15764;SDS011;7983;50.744;7.086;2023-07-20T13:00:20;1.23;;;0.77;;
15764;SDS011;7983;50.744;7.086;2023-07-20T13:02:49;1.83;;;1.00;;
15764;SDS011;7983;50.744;7.086;2023-07-20T13:05:18;1.25;;;0.82;;
15764;SDS011;7983;50.744;7.086;2023-07-20T13:07:43;1.75;;;1.10;;
15764;SDS011;7983;50.744;7.086;2023-07-20T13:10:11;1.45;;;1.30;;
15764;SDS011;7983;50.744;7.086;2023-07-20T13:12:37;2.25;;;0.93;;
15764;SDS011;7983;50.744;7.086;2023-07-20T13:15:09;2.38;;;0.90;;
15764;SDS011;7983;50.744;7.086;2023-07-20T13:17:38;1.10;;;0.98;;
15764;SDS011;7983;50.744;7.086;2023-07-20T13:20:07;1.55;;;0.98;;
15764;SDS011;7983;50.744;7.086;2023-07-20T13:22:35;1.60;;;1.15;;
15764;SDS011;7983;50.744;7.086;2023-07-20T13:25:01;1.35;;;0.93;;
15764;SDS011;7983;50.744;7.086;2023-07-20T13:27:27;1.40;;;0.73;;
15764;SDS011;7983;50.744;7.086;2023-07-20T13:29:56;1.40;;;0.98;;
15764;SDS011;7983;50.744;7.086;2023-07-20T13:32:22;0.90;;;0.73;;
15764;SDS011;7983;50.744;7.086;2023-07-20T13:34:48;1.13;;;0.85;;
15764;SDS011;7983;50.744;7.086;2023-07-20T13:37:16;1.10;;;0.90;;
15764;SDS011;7983;50.744;7.086;2023-07-20T13:39:46;1.02;;;0.80;;
15764;SDS011;7983;50.744;7.086;2023-07-20T13:42:12;1.55;;;0.93;;
15764;SDS011;7983;50.744;7.086;2023-07-20T13:44:38;3.25;;;1.00;;
15764;SDS011;7983;50.744;7.086;2023-07-20T13:47:03;2.17;;;0.85;;
15764;SDS011;7983;50.744;7.086;2023-07-20T13:49:32;1.42;;;0.85;;
15764;SDS011;7983;50.744;7.086;2023-07-20T13:52:02;1.90;;;1.02;;
15764;SDS011;7983;50.744;7.086;2023-07-20T13:54:34;1.52;;;0.95;;
15764;SDS011;7983;50.744;7.086;2023-07-20T13:57:00;1.30;;;0.80;;
15764;SDS011;7983;50.744;7.086;2023-07-20T13:59:28;2.40;;;0.60;;
15764;SDS011;7983;50.744;7.086;2023-07-20T14:01:56;1.15;;;0.80;;
15764;SDS011;7983;50.744;7.086;2023-07-20T14:04:21;1.52;;;0.75;;
15764;SDS011;7983;50.744;7.086;2023-07-20T14:06:47;0.93;;;0.68;;
15764;SDS011;7983;50.744;7.086;2023-07-20T14:09:13;3.17;;;0.93;;
15764;SDS011;7983;50.744;7.086;2023-07-20T14:11:38;1.35;;;0.93;;
15764;SDS011;7983;50.744;7.086;2023-07-20T14:14:06;1.48;;;0.90;;
15764;SDS011;7983;50.744;7.086;2023-07-20T14:16:34;1.92;;;1.00;;
15764;SDS011;7983;50.744;7.086;2023-07-20T14:19:00;1.30;;;0.90;;
15764;SDS011;7983;50.744;7.086;2023-07-20T14:21:30;1.20;;;0.80;;
15764;SDS011;7983;50.744;7.086;2023-07-20T14:23:56;1.55;;;1.08;;
15764;SDS011;7983;50.744;7.086;2023-07-20T14:26:22;1.02;;;0.70;;
15764;SDS011;7983;50.744;7.086;2023-07-20T14:28:50;4.65;;;1.00;;
15764;SDS011;7983;50.744;7.086;2023-07-20T14:31:18;2.20;;;1.25;;
15764;SDS011;7983;50.744;7.086;2023-07-20T14:33:45;1.55;;;1.10;;
15764;SDS011;7983;50.744;7.086;2023-07-20T14:36:10;2.55;;;1.40;;
15764;SDS011;7983;50.744;7.086;2023-07-20T14:38:36;1.75;;;1.30;;
15764;SDS011;7983;50.744;7.086;2023-07-20T14:41:05;1.00;;;0.90;;
15764;SDS011;7983;50.744;7.086;2023-07-20T14:43:31;1.50;;;0.80;;
15764;SDS011;7983;50.744;7.086;2023-07-20T14:46:03;2.33;;;0.82;;
15764;SDS011;7983;50.744;7.086;2023-07-20T14:48:29;1.65;;;0.85;;
15764;SDS011;7983;50.744;7.086;2023-07-20T14:50:54;1.00;;;0.88;;
15764;SDS011;7983;50.744;7.086;2023-07-20T14:53:22;2.72;;;0.80;;
15764;SDS011;7983;50.744;7.086;2023-07-20T14:55:48;2.67;;;0.73;;
15764;SDS011;7983;50.744;7.086;2023-07-20T14:58:13;0.88;;;0.60;;
15764;SDS011;7983;50.744;7.086;2023-07-20T15:00:39;1.98;;;1.23;;
15764;SDS011;7983;50.744;7.086;2023-07-20T15:03:04;1.10;;;1.00;;
15764;SDS011;7983;50.744;7.086;2023-07-20T15:05:30;1.13;;;0.82;;
15764;SDS011;7983;50.744;7.086;2023-07-20T15:08:00;0.98;;;0.88;;
15764;SDS011;7983;50.744;7.086;2023-07-20T15:10:29;0.95;;;0.80;;
15764;SDS011;7983;50.744;7.086;2023-07-20T15:12:54;1.85;;;0.73;;
15764;SDS011;7983;50.744;7.086;2023-07-20T15:15:20;3.70;;;1.00;;
15764;SDS011;7983;50.744;7.086;2023-07-20T15:17:46;1.00;;;0.90;;
15764;SDS011;7983;50.744;7.086;2023-07-20T15:20:12;1.00;;;0.90;;
15764;SDS011;7983;50.744;7.086;2023-07-20T15:22:39;1.10;;;0.85;;
15764;SDS011;7983;50.744;7.086;2023-07-20T15:25:05;1.05;;;0.90;;
15764;SDS011;7983;50.744;7.086;2023-07-20T15:27:32;1.45;;;1.02;;
15764;SDS011;7983;50.744;7.086;2023-07-20T15:30:00;0.80;;;0.73;;
15764;SDS011;7983;50.744;7.086;2023-07-20T15:32:28;0.90;;;0.90;;
15764;SDS011;7983;50.744;7.086;2023-07-20T15:34:54;1.20;;;0.80;;
15764;SDS011;7983;50.744;7.086;2023-07-20T15:37:19;1.88;;;0.85;;